sensor_id;sensor_type;location;lat;lon;timestamp;pressure;altitude;pressure_sealevel;temperature;humidity
57248;BME280;55809;46.618;10.764;2022-12-18T08:08:57;94317.47;;;-3.32;61.14
57248;BME280;55809;46.618;10.764;2022-12-18T08:11:25;94321.41;;;-3.29;61.04
57248;BME280;55809;46.618;10.764;2022-12-18T08:13:52;94329.13;;;-3.38;62.42
57248;BME280;55809;46.618;10.764;2022-12-18T08:16:20;94328.19;;;-3.52;61.98
57248;BME280;55809;46.618;10.764;2022-12-18T08:18:51;94333.09;;;-3.80;61.59
57248;BME280;55809;46.618;10.764;2022-12-18T08:21:19;94329.13;;;-3.77;61.49
57248;BME280;55809;46.618;10.764;2022-12-18T08:23:49;94334.44;;;-3.82;61.46
57248;BME280;55809;46.618;10.764;2022-12-18T08:26:20;94344.56;;;-3.99;62.13
57248;BME280;55809;46.618;10.764;2022-12-18T08:28:55;94349.34;;;-4.07;61.95
57248;BME280;55809;46.618;10.764;2022-12-18T08:31:29;94349.91;;;-4.15;61.97
57248;BME280;55809;46.618;10.764;2022-12-18T08:34:17;94352.81;;;-4.16;61.55
57248;BME280;55809;46.618;10.764;2022-12-18T08:36:45;94346.47;;;-4.15;61.00
57248;BME280;55809;46.618;10.764;2022-12-18T08:39:12;94347.78;;;-4.08;61.00
57248;BME280;55809;46.618;10.764;2022-12-18T08:41:40;94349.31;;;-4.02;60.86
57248;BME280;55809;46.618;10.764;2022-12-18T08:44:08;94340.13;;;-4.04;61.10
57248;BME280;55809;46.618;10.764;2022-12-18T08:46:52;94345.34;;;-3.99;61.31
57248;BME280;55809;46.618;10.764;2022-12-18T08:49:18;94355.41;;;-4.01;61.36
57248;BME280;55809;46.618;10.764;2022-12-18T08:51:46;94350.38;;;-3.97;61.70
57248;BME280;55809;46.618;10.764;2022-12-18T08:54:13;94346.66;;;-3.91;61.44
57248;BME280;55809;46.618;10.764;2022-12-18T08:56:44;94349.22;;;-3.81;62.35
57248;BME280;55809;46.618;10.764;2022-12-18T08:59:11;94345.78;;;-3.82;61.45
57248;BME280;55809;46.618;10.764;2022-12-18T09:01:40;94347.06;;;-3.79;61.02
57248;BME280;55809;46.618;10.764;2022-12-18T09:04:08;94344.19;;;-3.78;61.39
57248;BME280;55809;46.618;10.764;2022-12-18T09:06:38;94342.31;;;-3.77;61.17
57248;BME280;55809;46.618;10.764;2022-12-18T09:09:18;94340.78;;;-3.83;61.38
57248;BME280;55809;46.618;10.764;2022-12-18T09:11:50;94346.06;;;-3.83;61.52
57248;BME280;55809;46.618;10.764;2022-12-18T09:14:24;94353.97;;;-3.83;61.56
57248;BME280;55809;46.618;10.764;2022-12-18T09:17:10;94352.66;;;-3.86;61.98
57248;BME280;55809;46.618;10.764;2022-12-18T09:19:40;94351.84;;;-3.81;60.86
57248;BME280;55809;46.618;10.764;2022-12-18T09:22:11;94354.22;;;-3.80;61.01
57248;BME280;55809;46.618;10.764;2022-12-18T09:27:59;94353.78;;;-3.97;60.88
57248;BME280;55809;46.618;10.764;2022-12-18T09:30:39;94358.50;;;-3.94;60.82
57248;BME280;55809;46.618;10.764;2022-12-18T09:33:26;94356.66;;;-3.93;61.13
57248;BME280;55809;46.618;10.764;2022-12-18T09:39:13;94354.88;;;-4.03;60.45
57248;BME280;55809;46.618;10.764;2022-12-18T09:41:44;94346.97;;;-4.03;60.30
57248;BME280;55809;46.618;10.764;2022-12-18T09:47:13;94359.31;;;-3.98;60.71
57248;BME280;55809;46.618;10.764;2022-12-18T09:49:43;94351.66;;;-3.95;61.29
57248;BME280;55809;46.618;10.764;2022-12-18T09:52:16;94352.72;;;-3.96;60.98
57248;BME280;55809;46.618;10.764;2022-12-18T09:54:46;94353.78;;;-3.97;60.97
57248;BME280;55809;46.618;10.764;2022-12-18T09:57:20;94356.97;;;-4.00;60.91
57248;BME280;55809;46.618;10.764;2022-12-18T09:59:53;94351.16;;;-4.02;61.66
57248;BME280;55809;46.618;10.764;2022-12-18T10:02:25;94359.31;;;-3.98;60.81
57248;BME280;55809;46.618;10.764;2022-12-18T10:05:05;94367.22;;;-3.98;61.53
57248;BME280;55809;46.618;10.764;2022-12-18T10:07:38;94359.59;;;-4.00;61.47
57248;BME280;55809;46.618;10.764;2022-12-18T10:10:13;94361.72;;;-4.02;61.59
57248;BME280;55809;46.618;10.764;2022-12-18T10:12:44;94354.59;;;-4.02;61.38
57248;BME280;55809;46.618;10.764;2022-12-18T10:15:19;94355.09;;;-3.99;61.91
57248;BME280;55809;46.618;10.764;2022-12-18T10:17:58;94347.44;;;-3.91;61.43
57248;BME280;55809;46.618;10.764;2022-12-18T10:20:44;94333.16;;;-3.85;61.80
57248;BME280;55809;46.618;10.764;2022-12-18T10:23:15;94338.91;;;-3.83;62.27
57248;BME280;55809;46.618;10.764;2022-12-18T10:25:48;94332.03;;;-3.79;61.64
57248;BME280;55809;46.618;10.764;2022-12-18T10:28:21;94342.59;;;-3.79;62.05
57248;BME280;55809;46.618;10.764;2022-12-18T10:30:49;94327.88;;;-3.85;61.88
57248;BME280;55809;46.618;10.764;2022-12-18T10:33:20;94328.63;;;-3.79;61.94
57248;BME280;55809;46.618;10.764;2022-12-18T10:35:53;94326.25;;;-3.81;61.98
57248;BME280;55809;46.618;10.764;2022-12-18T10:41:32;94328.13;;;-3.81;61.85
57248;BME280;55809;46.618;10.764;2022-12-18T10:44:33;94326.50;;;-3.77;61.79
57248;BME280;55809;46.618;10.764;2022-12-18T11:02:23;94332.31;;;-3.75;62.36
57248;BME280;55809;46.618;10.764;2022-12-18T11:05:34;94326.44;;;-3.72;62.53
57248;BME280;55809;46.618;10.764;2022-12-18T11:08:19;94332.78;;;-3.68;62.35
57248;BME280;55809;46.618;10.764;2022-12-18T11:10:56;94335.44;;;-3.73;62.14
57248;BME280;55809;46.618;10.764;2022-12-18T11:16:59;94337.31;;;-3.79;62.36
57248;BME280;55809;46.618;10.764;2022-12-18T11:22:39;94328.59;;;-3.74;62.12
57248;BME280;55809;46.618;10.764;2022-12-18T11:25:16;94321.16;;;-3.67;62.36
57248;BME280;55809;46.618;10.764;2022-12-18T11:27:54;94325.34;;;-3.66;61.57
57248;BME280;55809;46.618;10.764;2022-12-18T11:33:37;94323.94;;;-3.53;61.14
57248;BME280;55809;46.618;10.764;2022-12-18T11:36:30;94322.16;;;-3.58;61.52
57248;BME280;55809;46.618;10.764;2022-12-18T11:42:51;94317.06;;;-3.49;59.96
57248;BME280;55809;46.618;10.764;2022-12-18T11:46:01;94301.22;;;-3.49;60.36
57248;BME280;55809;46.618;10.764;2022-12-18T11:49:03;94302.84;;;-3.53;59.68
57248;BME280;55809;46.618;10.764;2022-12-18T11:51:51;94297.78;;;-3.49;60.37
57248;BME280;55809;46.618;10.764;2022-12-18T11:54:56;94296.69;;;-3.43;60.47
57248;BME280;55809;46.618;10.764;2022-12-18T12:15:52;94292.53;;;-3.20;59.60
57248;BME280;55809;46.618;10.764;2022-12-18T12:21:48;94290.69;;;-3.20;60.28
57248;BME280;55809;46.618;10.764;2022-12-18T12:49:44;94295.94;;;-2.91;60.38
57248;BME280;55809;46.618;10.764;2022-12-18T12:55:45;94290.72;;;-2.96;61.09
57248;BME280;55809;46.618;10.764;2022-12-18T12:58:49;94286.72;;;-2.93;60.92
57248;BME280;55809;46.618;10.764;2022-12-18T13:01:48;94284.63;;;-2.96;60.69
57248;BME280;55809;46.618;10.764;2022-12-18T13:04:33;94283.59;;;-2.95;60.35
57248;BME280;55809;46.618;10.764;2022-12-18T13:38:43;94261.38;;;-2.94;61.77
57248;BME280;55809;46.618;10.764;2022-12-18T13:41:50;94270.66;;;-2.97;61.37
57248;BME280;55809;46.618;10.764;2022-12-18T14:16:11;94277.41;;;-2.62;61.83
57248;BME280;55809;46.618;10.764;2022-12-18T14:19:08;94280.56;;;-2.60;61.20
57248;BME280;55809;46.618;10.764;2022-12-18T14:22:14;94291.34;;;-2.56;61.99
57248;BME280;55809;46.618;10.764;2022-12-18T14:28:11;94296.06;;;-2.53;61.68
57248;BME280;55809;46.618;10.764;2022-12-18T14:53:02;94311.31;;;-2.69;62.61
57248;BME280;55809;46.618;10.764;2022-12-18T14:59:15;94303.44;;;-2.74;62.68
57248;BME280;55809;46.618;10.764;2022-12-18T15:01:49;94298.44;;;-2.75;62.55
57248;BME280;55809;46.618;10.764;2022-12-18T15:04:40;94306.13;;;-2.79;62.50
57248;BME280;55809;46.618;10.764;2022-12-18T15:07:13;94312.75;;;-2.81;61.99
57248;BME280;55809;46.618;10.764;2022-12-18T15:10:09;94314.88;;;-2.84;63.05
57248;BME280;55809;46.618;10.764;2022-12-18T15:12:44;94313.78;;;-2.77;62.42
57248;BME280;55809;46.618;10.764;2022-12-18T15:18:18;94316.72;;;-2.79;62.27
57248;BME280;55809;46.618;10.764;2022-12-18T15:21:21;94315.41;;;-2.81;62.86
57248;BME280;55809;46.618;10.764;2022-12-18T15:26:46;94317.03;;;-2.86;61.78
57248;BME280;55809;46.618;10.764;2022-12-18T15:32:23;94313.31;;;-3.09;62.54
57248;BME280;55809;46.618;10.764;2022-12-18T15:35:09;94319.16;;;-3.17;61.83
57248;BME280;55809;46.618;10.764;2022-12-18T15:37:55;94312.59;;;-3.19;62.28
57248;BME280;55809;46.618;10.764;2022-12-18T15:40:37;94317.09;;;-3.20;62.69
57248;BME280;55809;46.618;10.764;2022-12-18T15:43:39;94322.09;;;-3.18;62.29
57248;BME280;55809;46.618;10.764;2022-12-18T15:46:40;94326.63;;;-3.24;62.15
57248;BME280;55809;46.618;10.764;2022-12-18T15:49:28;94314.75;;;-3.26;61.65
57248;BME280;55809;46.618;10.764;2022-12-18T15:52:08;94332.75;;;-3.28;61.94
57248;BME280;55809;46.618;10.764;2022-12-18T15:57:55;94344.88;;;-3.27;61.99
57248;BME280;55809;46.618;10.764;2022-12-18T16:06:42;94351.88;;;-3.47;62.23
57248;BME280;55809;46.618;10.764;2022-12-18T16:09:15;94341.84;;;-3.45;61.11
57248;BME280;55809;46.618;10.764;2022-12-18T16:12:14;94348.16;;;-3.46;60.99
57248;BME280;55809;46.618;10.764;2022-12-18T16:17:47;94345.97;;;-3.34;60.04
57248;BME280;55809;46.618;10.764;2022-12-18T16:23:35;94343.53;;;-3.25;59.67
57248;BME280;55809;46.618;10.764;2022-12-18T16:26:19;94341.72;;;-3.30;59.04
57248;BME280;55809;46.618;10.764;2022-12-18T16:29:14;94343.31;;;-3.28;58.99
57248;BME280;55809;46.618;10.764;2022-12-18T16:31:56;94343.34;;;-3.34;59.88
57248;BME280;55809;46.618;10.764;2022-12-18T16:34:28;94345.16;;;-3.29;58.96
57248;BME280;55809;46.618;10.764;2022-12-18T16:37:12;94349.13;;;-3.32;59.57
57248;BME280;55809;46.618;10.764;2022-12-18T16:40:03;94350.16;;;-3.27;60.09
57248;BME280;55809;46.618;10.764;2022-12-18T16:42:36;94344.84;;;-3.22;60.05
57248;BME280;55809;46.618;10.764;2022-12-18T16:45:18;94337.94;;;-3.18;60.15
57248;BME280;55809;46.618;10.764;2022-12-18T16:47:54;94337.38;;;-3.15;60.09
57248;BME280;55809;46.618;10.764;2022-12-18T16:50:37;94341.38;;;-3.18;59.82
57248;BME280;55809;46.618;10.764;2022-12-18T16:56:06;94340.03;;;-3.15;59.76
57248;BME280;55809;46.618;10.764;2022-12-18T16:58:39;94330.25;;;-3.15;59.96
57248;BME280;55809;46.618;10.764;2022-12-18T17:01:10;94339.50;;;-3.17;60.79
57248;BME280;55809;46.618;10.764;2022-12-18T17:03:52;94337.88;;;-3.13;60.81
57248;BME280;55809;46.618;10.764;2022-12-18T17:06:21;94331.81;;;-3.14;61.31
57248;BME280;55809;46.618;10.764;2022-12-18T17:08:53;94333.13;;;-3.11;60.44
57248;BME280;55809;46.618;10.764;2022-12-18T17:11:25;94330.47;;;-3.11;61.14
57248;BME280;55809;46.618;10.764;2022-12-18T17:14:08;94333.66;;;-3.09;60.83
57248;BME280;55809;46.618;10.764;2022-12-18T17:16:38;94340.81;;;-3.15;61.32
57248;BME280;55809;46.618;10.764;2022-12-18T17:19:05;94341.88;;;-3.16;61.35
57248;BME280;55809;46.618;10.764;2022-12-18T17:21:46;94340.84;;;-3.20;61.26
57248;BME280;55809;46.618;10.764;2022-12-18T17:24:15;94350.59;;;-3.15;61.29
57248;BME280;55809;46.618;10.764;2022-12-18T17:26:58;94355.88;;;-3.15;60.41
57248;BME280;55809;46.618;10.764;2022-12-18T17:29:36;94356.59;;;-3.10;60.99
57248;BME280;55809;46.618;10.764;2022-12-18T17:32:31;94352.06;;;-3.04;60.51
57248;BME280;55809;46.618;10.764;2022-12-18T17:35:07;94368.38;;;-2.97;60.88
57248;BME280;55809;46.618;10.764;2022-12-18T17:37:42;94361.19;;;-2.91;60.50
57248;BME280;55809;46.618;10.764;2022-12-18T17:40:16;94357.50;;;-2.90;60.76
57248;BME280;55809;46.618;10.764;2022-12-18T17:42:48;94360.34;;;-2.87;59.91
57248;BME280;55809;46.618;10.764;2022-12-18T17:45:19;94368.28;;;-2.87;60.13
57248;BME280;55809;46.618;10.764;2022-12-18T17:47:46;94367.34;;;-2.96;60.50
57248;BME280;55809;46.618;10.764;2022-12-18T17:50:28;94366.28;;;-3.00;60.65
57248;BME280;55809;46.618;10.764;2022-12-18T17:53:05;94355.03;;;-3.11;61.12
57248;BME280;55809;46.618;10.764;2022-12-18T17:55:32;94365.88;;;-3.12;62.02
57248;BME280;55809;46.618;10.764;2022-12-18T17:58:04;94361.38;;;-3.12;62.90
57248;BME280;55809;46.618;10.764;2022-12-18T18:00:38;94349.53;;;-3.14;63.31
57248;BME280;55809;46.618;10.764;2022-12-18T18:03:19;94356.44;;;-3.18;63.49
57248;BME280;55809;46.618;10.764;2022-12-18T18:06:09;94368.00;;;-3.14;62.36
57248;BME280;55809;46.618;10.764;2022-12-18T18:08:52;94365.91;;;-3.17;63.24
57248;BME280;55809;46.618;10.764;2022-12-18T18:11:23;94368.00;;;-3.14;63.71
57248;BME280;55809;46.618;10.764;2022-12-18T18:14:17;94372.75;;;-3.16;63.12
57248;BME280;55809;46.618;10.764;2022-12-18T18:16:49;94374.63;;;-3.17;63.10
57248;BME280;55809;46.618;10.764;2022-12-18T18:19:20;94373.56;;;-3.16;63.76
57248;BME280;55809;46.618;10.764;2022-12-18T18:22:00;94369.06;;;-3.15;62.95
57248;BME280;55809;46.618;10.764;2022-12-18T18:24:36;94374.06;;;-3.14;63.03
57248;BME280;55809;46.618;10.764;2022-12-18T18:27:09;94383.56;;;-3.13;63.15
57248;BME280;55809;46.618;10.764;2022-12-18T18:29:52;94389.38;;;-3.11;62.51
57248;BME280;55809;46.618;10.764;2022-12-18T18:32:38;94389.66;;;-3.12;62.81
57248;BME280;55809;46.618;10.764;2022-12-18T18:35:20;94390.97;;;-3.15;62.58
57248;BME280;55809;46.618;10.764;2022-12-18T18:38:36;94387.81;;;-3.17;62.53
57248;BME280;55809;46.618;10.764;2022-12-18T18:41:08;94391.31;;;-3.21;63.00
57248;BME280;55809;46.618;10.764;2022-12-18T18:44:00;94389.75;;;-3.27;62.55
57248;BME280;55809;46.618;10.764;2022-12-18T18:46:34;94383.47;;;-3.32;62.89
57248;BME280;55809;46.618;10.764;2022-12-18T18:49:05;94390.09;;;-3.39;62.75
57248;BME280;55809;46.618;10.764;2022-12-18T18:51:49;94407.84;;;-3.45;62.70
57248;BME280;55809;46.618;10.764;2022-12-18T18:54:45;94390.44;;;-3.51;62.47
57248;BME280;55809;46.618;10.764;2022-12-18T18:57:20;94392.63;;;-3.58;62.78
57248;BME280;55809;46.618;10.764;2022-12-18T19:03:02;94394.19;;;-3.62;63.35
57248;BME280;55809;46.618;10.764;2022-12-18T19:05:31;94392.09;;;-3.65;63.33
57248;BME280;55809;46.618;10.764;2022-12-18T19:08:22;94393.72;;;-3.69;63.08
57248;BME280;55809;46.618;10.764;2022-12-18T19:10:55;94392.16;;;-3.75;63.06
57248;BME280;55809;46.618;10.764;2022-12-18T19:13:35;94401.16;;;-3.77;63.39
57248;BME280;55809;46.618;10.764;2022-12-18T19:16:07;94402.50;;;-3.84;63.56
57248;BME280;55809;46.618;10.764;2022-12-18T19:18:54;94399.88;;;-3.89;63.02
57248;BME280;55809;46.618;10.764;2022-12-18T19:24:33;94412.03;;;-3.93;63.62
57248;BME280;55809;46.618;10.764;2022-12-18T19:27:18;94406.00;;;-3.99;64.62
57248;BME280;55809;46.618;10.764;2022-12-18T19:29:57;94417.09;;;-4.02;64.72
57248;BME280;55809;46.618;10.764;2022-12-18T19:32:41;94420.25;;;-4.05;64.59
57248;BME280;55809;46.618;10.764;2022-12-18T19:38:13;94421.56;;;-4.03;64.14
57248;BME280;55809;46.618;10.764;2022-12-18T19:40:43;94416.59;;;-4.04;64.02
57248;BME280;55809;46.618;10.764;2022-12-18T19:46:14;94418.19;;;-4.13;65.07
57248;BME280;55809;46.618;10.764;2022-12-18T19:49:00;94421.91;;;-4.14;64.88
57248;BME280;55809;46.618;10.764;2022-12-18T19:51:50;94425.31;;;-4.14;64.81
57248;BME280;55809;46.618;10.764;2022-12-18T19:57:18;94424.25;;;-4.18;64.29
57248;BME280;55809;46.618;10.764;2022-12-18T19:59:45;94427.72;;;-4.17;64.34
57248;BME280;55809;46.618;10.764;2022-12-18T20:02:13;94429.00;;;-4.15;64.26
57248;BME280;55809;46.618;10.764;2022-12-18T20:04:43;94440.84;;;-4.12;64.72
57248;BME280;55809;46.618;10.764;2022-12-18T20:07:13;94443.53;;;-4.17;64.32
57248;BME280;55809;46.618;10.764;2022-12-18T20:09:42;94446.16;;;-4.22;63.80
57248;BME280;55809;46.618;10.764;2022-12-18T20:12:10;94445.91;;;-4.31;64.16
57248;BME280;55809;46.618;10.764;2022-12-18T20:23:17;94459.41;;;-4.43;64.52
57248;BME280;55809;46.618;10.764;2022-12-18T20:25:46;94457.53;;;-4.42;64.44
57248;BME280;55809;46.618;10.764;2022-12-18T20:28:13;94462.00;;;-4.38;64.74
57248;BME280;55809;46.618;10.764;2022-12-18T20:30:57;94459.91;;;-4.41;65.17
57248;BME280;55809;46.618;10.764;2022-12-18T20:33:25;94472.28;;;-4.41;65.40
57248;BME280;55809;46.618;10.764;2022-12-18T20:35:59;94466.75;;;-4.45;65.47
57248;BME280;55809;46.618;10.764;2022-12-18T20:41:40;94470.72;;;-4.48;65.61
57248;BME280;55809;46.618;10.764;2022-12-18T20:44:10;94475.72;;;-4.46;65.85
57248;BME280;55809;46.618;10.764;2022-12-18T20:46:40;94483.09;;;-4.38;65.89
57248;BME280;55809;46.618;10.764;2022-12-18T20:49:08;94478.59;;;-4.27;66.49
57248;BME280;55809;46.618;10.764;2022-12-18T20:51:38;94474.59;;;-4.04;67.07
57248;BME280;55809;46.618;10.764;2022-12-18T20:54:05;94481.44;;;-3.98;66.77
57248;BME280;55809;46.618;10.764;2022-12-18T20:56:37;94476.09;;;-3.83;66.86
57248;BME280;55809;46.618;10.764;2022-12-18T20:59:07;94472.41;;;-3.87;67.14
57248;BME280;55809;46.618;10.764;2022-12-18T21:01:41;94477.59;;;-3.66;66.62
57248;BME280;55809;46.618;10.764;2022-12-18T21:04:12;94462.00;;;-3.63;66.55
57248;BME280;55809;46.618;10.764;2022-12-18T21:06:40;94456.97;;;-3.59;66.45
57248;BME280;55809;46.618;10.764;2022-12-18T21:09:07;94454.88;;;-3.57;66.53
57248;BME280;55809;46.618;10.764;2022-12-18T21:14:58;94448.50;;;-3.51;67.38
57248;BME280;55809;46.618;10.764;2022-12-18T21:17:26;94463.25;;;-3.45;67.73
57248;BME280;55809;46.618;10.764;2022-12-18T21:20:01;94461.09;;;-3.38;67.88
57248;BME280;55809;46.618;10.764;2022-12-18T21:22:49;94461.34;;;-3.34;67.67
57248;BME280;55809;46.618;10.764;2022-12-18T21:25:19;94463.19;;;-3.35;68.24
57248;BME280;55809;46.618;10.764;2022-12-18T21:27:51;94465.78;;;-3.24;69.22
57248;BME280;55809;46.618;10.764;2022-12-18T21:30:27;94454.31;;;-3.10;66.21
57248;BME280;55809;46.618;10.764;2022-12-18T21:33:19;94452.53;;;-3.19;66.41
57248;BME280;55809;46.618;10.764;2022-12-18T21:35:50;94450.69;;;-3.19;66.11
57248;BME280;55809;46.618;10.764;2022-12-18T21:38:26;94438.28;;;-3.18;66.30
57248;BME280;55809;46.618;10.764;2022-12-18T21:40:55;94433.25;;;-3.15;66.06
57248;BME280;55809;46.618;10.764;2022-12-18T21:43:44;94442.50;;;-3.17;66.05
57248;BME280;55809;46.618;10.764;2022-12-18T21:46:30;94447.22;;;-3.14;66.78
57248;BME280;55809;46.618;10.764;2022-12-18T21:49:05;94455.16;;;-3.14;66.44
57248;BME280;55809;46.618;10.764;2022-12-18T21:51:47;94447.75;;;-3.12;65.81
57248;BME280;55809;46.618;10.764;2022-12-18T21:54:47;94440.38;;;-3.15;67.08
57248;BME280;55809;46.618;10.764;2022-12-18T22:00:44;94441.97;;;-3.19;67.48
57248;BME280;55809;46.618;10.764;2022-12-18T22:06:35;94456.75;;;-3.18;68.05
57248;BME280;55809;46.618;10.764;2022-12-18T22:09:21;94453.50;;;-3.05;65.88
57248;BME280;55809;46.618;10.764;2022-12-18T22:11:50;94448.47;;;-3.07;66.24
57248;BME280;55809;46.618;10.764;2022-12-18T22:14:21;94431.34;;;-3.09;67.10
57248;BME280;55809;46.618;10.764;2022-12-18T22:16:51;94432.63;;;-3.07;67.71
57248;BME280;55809;46.618;10.764;2022-12-18T22:19:21;94435.00;;;-3.05;68.65
57248;BME280;55809;46.618;10.764;2022-12-18T22:21:52;94434.72;;;-3.03;68.39
57248;BME280;55809;46.618;10.764;2022-12-18T22:24:39;94429.72;;;-3.05;68.80
57248;BME280;55809;46.618;10.764;2022-12-18T22:27:07;94427.44;;;-3.17;68.99
57248;BME280;55809;46.618;10.764;2022-12-18T22:29:36;94426.38;;;-3.16;69.49
57248;BME280;55809;46.618;10.764;2022-12-18T22:32:21;94420.03;;;-3.15;70.36
57248;BME280;55809;46.618;10.764;2022-12-18T22:35:02;94429.03;;;-3.16;69.68
57248;BME280;55809;46.618;10.764;2022-12-18T22:43:30;94427.31;;;-3.01;68.67
57248;BME280;55809;46.618;10.764;2022-12-18T22:46:07;94430.28;;;-3.08;68.57
57248;BME280;55809;46.618;10.764;2022-12-18T22:48:48;94435.81;;;-3.10;69.49
57248;BME280;55809;46.618;10.764;2022-12-18T22:51:35;94436.59;;;-3.04;68.74
57248;BME280;55809;46.618;10.764;2022-12-18T22:54:37;94423.84;;;-2.97;68.55
57248;BME280;55809;46.618;10.764;2022-12-18T22:57:19;94412.69;;;-2.89;68.44
57248;BME280;55809;46.618;10.764;2022-12-18T23:02:46;94413.69;;;-2.79;68.94
57248;BME280;55809;46.618;10.764;2022-12-18T23:05:30;94410.22;;;-2.80;68.97
57248;BME280;55809;46.618;10.764;2022-12-18T23:08:13;94423.09;;;-2.68;67.56
57248;BME280;55809;46.618;10.764;2022-12-18T23:10:54;94425.75;;;-2.73;66.93
57248;BME280;55809;46.618;10.764;2022-12-18T23:13:35;94421.34;;;-2.83;66.79
57248;BME280;55809;46.618;10.764;2022-12-18T23:19:24;94426.97;;;-2.90;68.25
57248;BME280;55809;46.618;10.764;2022-12-18T23:22:06;94424.06;;;-2.88;69.16
57248;BME280;55809;46.618;10.764;2022-12-18T23:24:39;94420.63;;;-2.89;69.25
57248;BME280;55809;46.618;10.764;2022-12-18T23:30:28;94427.13;;;-2.76;69.62
57248;BME280;55809;46.618;10.764;2022-12-18T23:33:37;94426.84;;;-2.74;69.97
57248;BME280;55809;46.618;10.764;2022-12-18T23:36:23;94436.09;;;-2.77;69.81
57248;BME280;55809;46.618;10.764;2022-12-18T23:39:11;94442.69;;;-2.74;70.16
57248;BME280;55809;46.618;10.764;2022-12-18T23:41:50;94438.94;;;-2.68;70.06
57248;BME280;55809;46.618;10.764;2022-12-18T23:44:51;94430.72;;;-2.67;71.14
57248;BME280;55809;46.618;10.764;2022-12-18T23:47:31;94434.91;;;-2.61;69.89
57248;BME280;55809;46.618;10.764;2022-12-18T23:50:12;94417.16;;;-2.55;69.77
57248;BME280;55809;46.618;10.764;2022-12-18T23:55:41;94421.88;;;-2.52;71.35
57248;BME280;55809;46.618;10.764;2022-12-18T23:58:23;94426.94;;;-2.55;70.45
